createdAt,value
2023-02-21T00:01:04.834Z,6.70
2023-02-21T00:03:54.007Z,6.80
2023-02-21T00:32:36.643Z,6.90
2023-02-21T00:36:00.169Z,6.90
2023-02-21T00:38:46.868Z,7.00
2023-02-21T00:41:46.796Z,7.30
2023-02-21T00:44:38.716Z,7.40
2023-02-21T00:47:26.665Z,7.60
2023-02-21T00:50:24.232Z,7.80
2023-02-21T00:53:17.382Z,7.90
2023-02-21T00:56:04.504Z,8.20
2023-02-21T01:17:57.178Z,8.00
2023-02-21T01:20:47.368Z,7.90
2023-02-21T01:23:34.390Z,7.70
2023-02-21T01:26:30.831Z,7.90
2023-02-21T01:29:19.071Z,7.90
2023-02-21T01:32:32.872Z,8.10
2023-02-21T01:35:22.802Z,8.10
2023-02-21T01:38:16.993Z,7.70
2023-02-21T01:41:07.485Z,7.80
2023-02-21T02:03:28.210Z,7.50
2023-02-21T02:06:27.733Z,7.50
2023-02-21T02:09:15.059Z,7.30
2023-02-21T02:12:22.453Z,7.40
2023-02-21T02:15:22.184Z,7.70
2023-02-21T02:18:36.520Z,7.70
2023-02-21T02:22:00.105Z,8.10
2023-02-21T02:25:01.019Z,8.40
2023-02-21T02:28:03.311Z,8.30
2023-02-21T02:36:33.063Z,8.50
2023-02-21T02:39:23.242Z,8.50
2023-02-21T02:42:11.401Z,8.30
2023-02-21T02:45:20.420Z,8.40
2023-02-21T02:47:59.970Z,8.40
2023-02-21T02:51:15.852Z,8.60
2023-02-21T02:54:03.887Z,8.40
2023-02-21T02:56:37.173Z,8.50
2023-02-21T03:26:14.245Z,8.60
2023-02-21T03:28:54.914Z,8.60
2023-02-21T03:31:29.763Z,8.80
2023-02-21T03:34:03.782Z,8.80
2023-02-21T03:36:41.862Z,8.40
2023-02-21T03:39:14.227Z,8.40
2023-02-21T03:41:55.511Z,8.40
2023-02-21T03:44:32.293Z,8.20
2023-02-21T03:47:11.227Z,8.30
2023-02-21T03:49:48.705Z,7.90
2023-02-21T04:14:40.180Z,8.30
2023-02-21T04:17:19.714Z,8.40
2023-02-21T04:19:53.651Z,8.30
2023-02-21T04:22:33.171Z,8.50
2023-02-21T04:25:05.545Z,8.50
2023-02-21T04:27:39.452Z,8.60
2023-02-21T04:30:14.277Z,8.60
2023-02-21T04:32:53.310Z,8.40
2023-02-21T04:35:26.152Z,8.40
2023-02-21T04:37:57.344Z,8.50
2023-02-21T04:43:38.190Z,8.40
2023-02-21T04:46:12.751Z,8.00
2023-02-21T04:48:44.004Z,7.90
2023-02-21T04:51:18.206Z,7.90
2023-02-21T04:54:09.025Z,7.80
2023-02-21T04:56:45.105Z,7.80
2023-02-21T04:59:22.272Z,7.80
2023-02-21T05:01:55.554Z,7.90
2023-02-21T05:20:41.050Z,7.80
2023-02-21T05:23:14.229Z,7.50
2023-02-21T05:25:47.839Z,7.60
2023-02-21T05:28:16.735Z,7.60
2023-02-21T05:31:02.411Z,7.50
2023-02-21T05:33:47.818Z,7.40
2023-02-21T05:36:18.320Z,7.50
2023-02-21T05:39:17.250Z,7.50
2023-02-21T06:34:26.813Z,7.70
2023-02-21T06:36:58.673Z,7.60
2023-02-21T06:39:46.625Z,7.80
2023-02-21T06:42:16.329Z,7.80
2023-02-21T06:44:59.641Z,7.80
2023-02-21T06:47:35.919Z,8.00
2023-02-21T06:50:10.902Z,7.90
2023-02-21T06:52:47.940Z,8.10
2023-02-21T07:34:19.237Z,10.30
2023-02-21T07:36:55.507Z,10.00
2023-02-21T07:39:28.608Z,9.40
2023-02-21T07:42:00.875Z,8.60
2023-02-21T07:44:32.507Z,8.40
2023-02-21T07:47:03.967Z,8.20
2023-02-21T07:49:47.810Z,8.10
2023-02-21T07:52:24.790Z,8.10
2023-02-21T08:08:37.406Z,7.80
2023-02-21T08:11:09.780Z,8.20
2023-02-21T08:13:41.614Z,8.10
2023-02-21T08:16:14.844Z,8.30
2023-02-21T08:18:50.576Z,8.20
2023-02-21T08:21:31.333Z,8.40
2023-02-21T08:24:07.294Z,8.30
2023-02-21T08:52:21.516Z,9.10
2023-02-21T08:55:06.585Z,9.20
2023-02-21T08:57:45.306Z,9.00
2023-02-21T09:00:31.047Z,8.80
2023-02-21T09:03:07.780Z,9.00
2023-02-21T09:09:13.859Z,9.40
2023-02-21T09:11:48.986Z,9.80
2023-02-21T09:14:30.572Z,9.80
2023-02-21T09:20:28.160Z,10.10
2023-02-21T09:22:57.723Z,10.20
2023-02-21T09:25:33.836Z,10.00
2023-02-21T09:28:19.495Z,10.10
2023-02-21T09:30:53.429Z,10.30
2023-02-21T09:33:32.478Z,10.40
2023-02-21T09:36:31.048Z,10.00
2023-02-21T09:39:53.285Z,10.20
2023-02-21T09:42:28.934Z,10.50
2023-02-21T09:49:12.310Z,10.90
2023-02-21T09:52:29.820Z,11.20
2023-02-21T10:23:53.784Z,12.20
2023-02-21T10:42:45.139Z,12.70
2023-02-21T10:47:17.192Z,12.80
2023-02-21T10:53:49.691Z,13.10
2023-02-21T10:57:19.081Z,12.60
2023-02-21T12:04:14.247Z,14.60
2023-02-21T13:11:43.134Z,17.40
2023-02-21T13:19:19.575Z,17.30
2023-02-21T13:30:13.668Z,17.40
2023-02-21T13:45:31.117Z,17.50
2023-02-21T13:49:18.361Z,17.80
2023-02-21T13:52:00.556Z,18.00
2023-02-21T14:23:56.409Z,17.10
2023-02-21T14:26:48.413Z,17.20
2023-02-21T14:33:18.052Z,17.30
2023-02-21T14:36:57.080Z,17.30
2023-02-21T14:39:38.671Z,17.20
2023-02-21T14:43:01.827Z,17.10
2023-02-21T14:46:26.287Z,17.00
2023-02-21T14:49:55.432Z,16.60
2023-02-21T14:57:14.523Z,16.50
2023-02-21T15:28:09.803Z,16.30
2023-02-21T15:31:05.996Z,16.40
2023-02-21T15:34:01.872Z,16.40
2023-02-21T15:37:27.392Z,16.30
2023-02-21T15:48:00.433Z,16.60
2023-02-21T15:54:29.880Z,16.40
2023-02-21T15:58:27.124Z,16.30
2023-02-21T16:02:32.831Z,16.20
2023-02-21T18:15:06.620Z,14.80
2023-02-21T19:34:27.778Z,13.30
2023-02-21T19:41:40.167Z,13.20
2023-02-21T20:41:59.734Z,13.20
2023-02-21T20:44:45.343Z,13.40
2023-02-21T20:48:10.035Z,13.70
2023-02-21T21:01:03.721Z,13.70
2023-02-21T21:07:06.557Z,14.10
2023-02-21T22:10:43.333Z,13.10
2023-02-21T22:25:15.484Z,12.80
2023-02-21T22:52:37.075Z,12.50
2023-02-21T22:56:03.014Z,12.50
2023-02-21T23:12:51.221Z,12.20
2023-02-21T23:16:03.311Z,12.10
2023-02-21T23:42:21.132Z,11.70
2023-02-21T23:45:05.177Z,11.10
2023-02-21T23:48:01.412Z,11.30
2023-02-21T23:51:15.074Z,11.30
